sensor_id;sensor_type;location;lat;lon;timestamp;pressure;altitude;pressure_sealevel;temperature;humidity
32243;BME280;18731;42.830;24.390;2023-06-01T02:59:38;94733.78;;;12.38;86.51
32243;BME280;18731;42.830;24.390;2023-06-01T03:02:04;94739.69;;;12.43;86.56
32243;BME280;18731;42.830;24.390;2023-06-01T03:04:30;94738.69;;;12.48;86.79
32243;BME280;18731;42.830;24.390;2023-06-01T03:06:58;94707.13;;;12.29;86.72
32243;BME280;18731;42.830;24.390;2023-06-01T03:09:24;94752.22;;;12.64;86.31
32243;BME280;18731;42.830;24.390;2023-06-01T03:11:50;94754.56;;;12.65;86.73
32243;BME280;18731;42.830;24.390;2023-06-01T03:14:16;94751.66;;;12.70;86.61
32243;BME280;18731;42.830;24.390;2023-06-01T03:16:42;94752.09;;;12.72;86.53
32243;BME280;18731;42.830;24.390;2023-06-01T03:19:07;94754.56;;;12.77;86.25
32243;BME280;18731;42.830;24.390;2023-06-01T03:21:33;94753.09;;;12.80;85.73
32243;BME280;18731;42.830;24.390;2023-06-01T03:23:59;94744.84;;;12.73;85.77
32243;BME280;18731;42.830;24.390;2023-06-01T03:26:24;94750.88;;;12.70;86.02
32243;BME280;18731;42.830;24.390;2023-06-01T03:28:50;94759.13;;;12.77;85.96
32243;BME280;18731;42.830;24.390;2023-06-01T03:31:16;94757.00;;;12.70;86.67
32243;BME280;18731;42.830;24.390;2023-06-01T03:33:46;94756.34;;;12.73;86.65
32243;BME280;18731;42.830;24.390;2023-06-01T03:36:12;94758.25;;;12.73;86.21
32243;BME280;18731;42.830;24.390;2023-06-01T03:38:37;94755.66;;;12.76;86.24
32243;BME280;18731;42.830;24.390;2023-06-01T03:41:03;94749.66;;;12.79;85.70
32243;BME280;18731;42.830;24.390;2023-06-01T03:43:28;94740.06;;;12.78;85.83
32243;BME280;18731;42.830;24.390;2023-06-01T03:45:55;94749.31;;;12.93;85.98
32243;BME280;18731;42.830;24.390;2023-06-01T03:48:21;94750.97;;;12.98;85.86
32243;BME280;18731;42.830;24.390;2023-06-01T03:50:46;94753.13;;;13.04;86.02
32243;BME280;18731;42.830;24.390;2023-06-01T03:53:12;94701.44;;;12.79;85.78
32243;BME280;18731;42.830;24.390;2023-06-01T03:55:38;94753.00;;;13.13;85.78
32243;BME280;18731;42.830;24.390;2023-06-01T03:58:04;94743.41;;;13.12;86.26
32243;BME280;18731;42.830;24.390;2023-06-01T04:00:30;94749.00;;;13.19;86.20
32243;BME280;18731;42.830;24.390;2023-06-01T04:02:59;94734.59;;;13.11;86.30
32243;BME280;18731;42.830;24.390;2023-06-01T04:05:26;94754.25;;;13.28;85.76
32243;BME280;18731;42.830;24.390;2023-06-01T04:07:54;94735.81;;;13.26;85.67
32243;BME280;18731;42.830;24.390;2023-06-01T04:10:20;94756.56;;;13.41;85.90
32243;BME280;18731;42.830;24.390;2023-06-01T04:12:47;94750.09;;;13.42;85.84
32243;BME280;18731;42.830;24.390;2023-06-01T04:15:18;94737.91;;;13.45;85.30
32243;BME280;18731;42.830;24.390;2023-06-01T04:17:44;94738.19;;;13.56;84.98
32243;BME280;18731;42.830;24.390;2023-06-01T04:20:16;94743.19;;;13.69;84.90
32243;BME280;18731;42.830;24.390;2023-06-01T04:22:43;94739.03;;;13.72;84.97
32243;BME280;18731;42.830;24.390;2023-06-01T04:37:10;94750.31;;;14.80;81.84
32243;BME280;18731;42.830;24.390;2023-06-01T04:39:36;94730.38;;;14.82;81.34
32243;BME280;18731;42.830;24.390;2023-06-01T04:42:02;94747.34;;;15.01;81.63
32243;BME280;18731;42.830;24.390;2023-06-01T04:44:28;94737.38;;;15.02;81.66
32243;BME280;18731;42.830;24.390;2023-06-01T04:46:55;94755.38;;;15.17;81.20
32243;BME280;18731;42.830;24.390;2023-06-01T04:49:22;94747.47;;;15.24;81.53
32243;BME280;18731;42.830;24.390;2023-06-01T04:51:54;94760.53;;;15.41;81.00
32243;BME280;18731;42.830;24.390;2023-06-01T07:02:57;94688.84;;;21.82;67.52
32243;BME280;18731;42.830;24.390;2023-06-01T07:05:24;94688.44;;;21.83;59.63
32243;BME280;18731;42.830;24.390;2023-06-01T07:07:50;94685.78;;;21.73;57.39
32243;BME280;18731;42.830;24.390;2023-06-01T07:10:16;94685.31;;;21.89;55.34
32243;BME280;18731;42.830;24.390;2023-06-01T07:12:42;94680.25;;;21.98;55.43
32243;BME280;18731;42.830;24.390;2023-06-01T07:15:09;94684.53;;;21.92;57.41
32243;BME280;18731;42.830;24.390;2023-06-01T07:17:35;94671.41;;;21.76;54.48
32243;BME280;18731;42.830;24.390;2023-06-01T07:20:02;94676.06;;;21.79;56.88
32243;BME280;18731;42.830;24.390;2023-06-01T07:22:32;94673.03;;;21.52;57.61
32243;BME280;18731;42.830;24.390;2023-06-01T07:24:59;94666.91;;;21.34;59.39
32243;BME280;18731;42.830;24.390;2023-06-01T07:27:25;94659.16;;;21.29;60.02
32243;BME280;18731;42.830;24.390;2023-06-01T07:29:51;94667.63;;;21.45;60.63
32243;BME280;18731;42.830;24.390;2023-06-01T07:32:24;94671.81;;;21.74;59.29
32243;BME280;18731;42.830;24.390;2023-06-01T07:34:51;94660.50;;;21.87;59.03
32243;BME280;18731;42.830;24.390;2023-06-01T07:37:17;94660.41;;;22.01;59.14
32243;BME280;18731;42.830;24.390;2023-06-01T07:39:48;94667.28;;;22.27;58.91
32243;BME280;18731;42.830;24.390;2023-06-01T07:42:14;94657.91;;;22.38;58.22
32243;BME280;18731;42.830;24.390;2023-06-01T07:44:40;94660.09;;;22.58;56.77
32243;BME280;18731;42.830;24.390;2023-06-01T07:47:06;94653.69;;;22.82;56.89
32243;BME280;18731;42.830;24.390;2023-06-01T07:49:32;94642.56;;;23.10;56.84
32243;BME280;18731;42.830;24.390;2023-06-01T07:52:00;94642.88;;;23.57;57.51
32243;BME280;18731;42.830;24.390;2023-06-01T07:54:26;94644.00;;;23.94;52.27
32243;BME280;18731;42.830;24.390;2023-06-01T07:56:52;94630.25;;;24.31;46.12
32243;BME280;18731;42.830;24.390;2023-06-01T07:59:19;94625.47;;;24.62;42.36
32243;BME280;18731;42.830;24.390;2023-06-01T08:01:49;94624.84;;;24.78;39.12
32243;BME280;18731;42.830;24.390;2023-06-01T08:04:16;94622.00;;;24.85;39.18
32243;BME280;18731;42.830;24.390;2023-06-01T08:06:42;94619.19;;;25.12;38.72
32243;BME280;18731;42.830;24.390;2023-06-01T08:09:09;94619.09;;;25.39;36.45
32243;BME280;18731;42.830;24.390;2023-06-01T08:11:35;94621.41;;;25.60;38.09
32243;BME280;18731;42.830;24.390;2023-06-01T08:14:01;94633.47;;;25.63;36.05
32243;BME280;18731;42.830;24.390;2023-06-01T08:16:29;94618.81;;;25.53;37.21
32243;BME280;18731;42.830;24.390;2023-06-01T08:18:55;94615.69;;;25.75;35.40
32243;BME280;18731;42.830;24.390;2023-06-01T08:21:24;94621.81;;;25.99;34.20
32243;BME280;18731;42.830;24.390;2023-06-01T08:23:51;94612.06;;;26.17;34.71
32243;BME280;18731;42.830;24.390;2023-06-01T08:26:19;94628.44;;;26.37;34.84
32243;BME280;18731;42.830;24.390;2023-06-01T08:28:45;94633.16;;;26.37;33.43
32243;BME280;18731;42.830;24.390;2023-06-01T08:31:20;94622.19;;;26.37;30.96
32243;BME280;18731;42.830;24.390;2023-06-01T08:33:47;94632.81;;;26.35;34.53
32243;BME280;18731;42.830;24.390;2023-06-01T08:36:14;94623.94;;;26.63;35.05
32243;BME280;18731;42.830;24.390;2023-06-01T08:38:41;94613.31;;;26.65;31.80
32243;BME280;18731;42.830;24.390;2023-06-01T08:41:26;94623.56;;;26.94;33.00
32243;BME280;18731;42.830;24.390;2023-06-01T08:44:02;94625.19;;;26.91;28.68
32243;BME280;18731;42.830;24.390;2023-06-01T08:46:31;94611.84;;;26.77;28.85
32243;BME280;18731;42.830;24.390;2023-06-01T08:48:58;94603.91;;;26.99;33.10
32243;BME280;18731;42.830;24.390;2023-06-01T08:51:25;94607.97;;;27.23;31.59
32243;BME280;18731;42.830;24.390;2023-06-01T08:53:53;94602.25;;;27.46;31.31
32243;BME280;18731;42.830;24.390;2023-06-01T08:56:19;94610.22;;;27.70;30.29
32243;BME280;18731;42.830;24.390;2023-06-01T08:58:47;94599.25;;;27.70;31.28
32243;BME280;18731;42.830;24.390;2023-06-01T09:01:17;94593.97;;;27.63;32.11
32243;BME280;18731;42.830;24.390;2023-06-01T09:03:44;94596.63;;;27.37;31.82
32243;BME280;18731;42.830;24.390;2023-06-01T09:06:10;94601.00;;;27.64;33.05
32243;BME280;18731;42.830;24.390;2023-06-01T09:08:36;94607.88;;;27.55;30.79
32243;BME280;18731;42.830;24.390;2023-06-01T09:11:02;94606.81;;;27.66;30.78
32243;BME280;18731;42.830;24.390;2023-06-01T09:13:35;94598.94;;;27.68;30.63
32243;BME280;18731;42.830;24.390;2023-06-01T09:16:01;94601.75;;;27.35;30.59
32243;BME280;18731;42.830;24.390;2023-06-01T09:18:27;94590.81;;;27.35;29.24
32243;BME280;18731;42.830;24.390;2023-06-01T09:20:53;94594.22;;;27.68;31.61
32243;BME280;18731;42.830;24.390;2023-06-01T09:23:26;94596.22;;;27.80;30.80
32243;BME280;18731;42.830;24.390;2023-06-01T09:26:09;94592.28;;;28.07;31.73
32243;BME280;18731;42.830;24.390;2023-06-01T09:34:01;94591.19;;;27.21;29.45
32243;BME280;18731;42.830;24.390;2023-06-01T09:36:30;94570.66;;;27.13;30.47
32243;BME280;18731;42.830;24.390;2023-06-01T09:39:06;94597.81;;;27.36;31.09
32243;BME280;18731;42.830;24.390;2023-06-01T09:41:52;94601.91;;;27.44;31.51
32243;BME280;18731;42.830;24.390;2023-06-01T09:44:28;94602.19;;;27.34;30.00
32243;BME280;18731;42.830;24.390;2023-06-01T09:47:05;94597.66;;;26.98;29.72
32243;BME280;18731;42.830;24.390;2023-06-01T09:49:35;94598.69;;;26.55;31.72
32243;BME280;18731;42.830;24.390;2023-06-01T09:54:39;94606.47;;;25.85;33.28
32243;BME280;18731;42.830;24.390;2023-06-01T09:57:06;94618.47;;;25.51;39.53
32243;BME280;18731;42.830;24.390;2023-06-01T09:59:41;94617.78;;;24.30;45.09
32243;BME280;18731;42.830;24.390;2023-06-01T10:02:10;94627.06;;;23.04;48.75
32243;BME280;18731;42.830;24.390;2023-06-01T10:04:39;94626.84;;;22.36;51.12
32243;BME280;18731;42.830;24.390;2023-06-01T10:07:06;94612.44;;;21.69;52.40
32243;BME280;18731;42.830;24.390;2023-06-01T10:09:35;94612.59;;;21.19;54.79
32243;BME280;18731;42.830;24.390;2023-06-01T10:12:04;94628.56;;;21.00;56.48
32243;BME280;18731;42.830;24.390;2023-06-01T10:14:30;94582.06;;;20.37;56.82
32243;BME280;18731;42.830;24.390;2023-06-01T10:16:57;94620.44;;;20.53;58.40
32243;BME280;18731;42.830;24.390;2023-06-01T10:19:23;94620.41;;;20.36;58.41
32243;BME280;18731;42.830;24.390;2023-06-01T10:21:49;94639.41;;;20.39;59.64
32243;BME280;18731;42.830;24.390;2023-06-01T10:24:18;94635.50;;;20.37;59.71
32243;BME280;18731;42.830;24.390;2023-06-01T10:27:13;94638.22;;;20.26;60.48
32243;BME280;18731;42.830;24.390;2023-06-01T10:29:41;94635.88;;;20.14;60.41
32243;BME280;18731;42.830;24.390;2023-06-01T10:32:41;94645.94;;;20.24;60.67
32243;BME280;18731;42.830;24.390;2023-06-01T10:35:10;94621.56;;;20.17;59.80
32243;BME280;18731;42.830;24.390;2023-06-01T10:40:36;94628.19;;;20.66;60.77
32243;BME280;18731;42.830;24.390;2023-06-01T10:43:02;94631.28;;;20.89;63.52
32243;BME280;18731;42.830;24.390;2023-06-01T10:48:10;94631.25;;;21.25;59.29
32243;BME280;18731;42.830;24.390;2023-06-01T10:50:37;94614.94;;;21.32;60.75
32243;BME280;18731;42.830;24.390;2023-06-01T10:53:26;94627.31;;;21.40;60.92
32243;BME280;18731;42.830;24.390;2023-06-01T10:56:24;94618.69;;;21.59;60.89
32243;BME280;18731;42.830;24.390;2023-06-01T11:01:35;94617.06;;;21.76;61.07
32243;BME280;18731;42.830;24.390;2023-06-01T11:04:01;94610.00;;;21.89;61.70
32243;BME280;18731;42.830;24.390;2023-06-01T11:06:32;94611.50;;;22.01;59.57
32243;BME280;18731;42.830;24.390;2023-06-01T11:09:00;94613.81;;;22.06;59.97
32243;BME280;18731;42.830;24.390;2023-06-01T11:14:21;94601.06;;;22.51;59.04
32243;BME280;18731;42.830;24.390;2023-06-01T11:16:49;94597.81;;;22.67;57.62
32243;BME280;18731;42.830;24.390;2023-06-01T11:19:26;94588.19;;;23.03;54.67
32243;BME280;18731;42.830;24.390;2023-06-01T11:22:00;94593.50;;;23.14;56.60
32243;BME280;18731;42.830;24.390;2023-06-01T11:24:36;94565.34;;;23.28;54.70
32243;BME280;18731;42.830;24.390;2023-06-01T11:27:07;94568.28;;;23.44;52.74
32243;BME280;18731;42.830;24.390;2023-06-01T11:29:33;94551.28;;;23.33;53.75
32243;BME280;18731;42.830;24.390;2023-06-01T11:32:02;94521.41;;;22.92;53.71
32243;BME280;18731;42.830;24.390;2023-06-01T11:34:33;94554.53;;;23.21;55.48
32243;BME280;18731;42.830;24.390;2023-06-01T11:37:00;94554.53;;;23.21;57.22
32243;BME280;18731;42.830;24.390;2023-06-01T11:39:27;94553.72;;;23.24;56.77
32243;BME280;18731;42.830;24.390;2023-06-01T11:44:33;94553.81;;;23.17;55.82
32243;BME280;18731;42.830;24.390;2023-06-01T11:47:00;94559.25;;;23.17;53.52
32243;BME280;18731;42.830;24.390;2023-06-01T11:49:26;94543.44;;;23.04;54.41
32243;BME280;18731;42.830;24.390;2023-06-01T11:51:53;94552.66;;;22.80;56.49
32243;BME280;18731;42.830;24.390;2023-06-01T11:54:23;94554.19;;;22.36;58.06
32243;BME280;18731;42.830;24.390;2023-06-01T11:56:49;94552.34;;;22.23;58.76
32243;BME280;18731;42.830;24.390;2023-06-01T11:59:15;94546.16;;;22.19;58.42
32243;BME280;18731;42.830;24.390;2023-06-01T12:01:45;94518.31;;;22.04;59.43
32243;BME280;18731;42.830;24.390;2023-06-01T12:04:19;94529.09;;;22.18;58.40
32243;BME280;18731;42.830;24.390;2023-06-01T12:06:45;94529.03;;;22.25;61.16
32243;BME280;18731;42.830;24.390;2023-06-01T12:09:15;94526.63;;;22.34;62.10
32243;BME280;18731;42.830;24.390;2023-06-01T12:11:42;94536.63;;;22.44;61.00
32243;BME280;18731;42.830;24.390;2023-06-01T12:14:10;94522.84;;;22.62;61.93
32243;BME280;18731;42.830;24.390;2023-06-01T12:19:25;94522.28;;;22.85;59.21
32243;BME280;18731;42.830;24.390;2023-06-01T12:21:53;94524.91;;;22.92;59.75
32243;BME280;18731;42.830;24.390;2023-06-01T12:24:31;94525.19;;;23.01;59.71
32243;BME280;18731;42.830;24.390;2023-06-01T12:27:01;94522.75;;;23.10;57.84
32243;BME280;18731;42.830;24.390;2023-06-01T12:29:38;94516.31;;;23.28;58.22
32243;BME280;18731;42.830;24.390;2023-06-01T12:32:04;94522.91;;;23.30;56.70
32243;BME280;18731;42.830;24.390;2023-06-01T12:34:30;94513.09;;;23.36;57.06
32243;BME280;18731;42.830;24.390;2023-06-01T12:36:55;94507.78;;;23.60;56.17
32243;BME280;18731;42.830;24.390;2023-06-01T12:39:33;94520.94;;;23.92;56.92
32243;BME280;18731;42.830;24.390;2023-06-01T12:42:03;94512.69;;;24.22;54.16
32243;BME280;18731;42.830;24.390;2023-06-01T12:44:31;94507.75;;;24.41;52.20
32243;BME280;18731;42.830;24.390;2023-06-01T12:46:58;94512.38;;;24.44;51.74
32243;BME280;18731;42.830;24.390;2023-06-01T12:49:26;94504.16;;;24.67;49.74
32243;BME280;18731;42.830;24.390;2023-06-01T12:51:53;94487.75;;;24.47;48.47
32243;BME280;18731;42.830;24.390;2023-06-01T12:54:18;94509.47;;;24.74;48.45
32243;BME280;18731;42.830;24.390;2023-06-01T12:56:47;94491.75;;;25.06;49.40
32243;BME280;18731;42.830;24.390;2023-06-01T12:59:14;94510.44;;;25.27;46.94
32243;BME280;18731;42.830;24.390;2023-06-01T13:01:39;94501.44;;;25.66;49.53
32243;BME280;18731;42.830;24.390;2023-06-01T13:04:05;94506.66;;;25.77;44.58
32243;BME280;18731;42.830;24.390;2023-06-01T13:06:33;94500.25;;;25.47;44.74
32243;BME280;18731;42.830;24.390;2023-06-01T13:09:00;94499.56;;;25.43;45.57
32243;BME280;18731;42.830;24.390;2023-06-01T13:11:26;94504.09;;;25.50;46.19
32243;BME280;18731;42.830;24.390;2023-06-01T13:13:52;94518.34;;;25.41;46.15
32243;BME280;18731;42.830;24.390;2023-06-01T13:16:19;94518.84;;;25.16;45.30
32243;BME280;18731;42.830;24.390;2023-06-01T13:18:45;94515.03;;;24.90;45.51
32243;BME280;18731;42.830;24.390;2023-06-01T13:21:13;94516.69;;;24.41;42.01
32243;BME280;18731;42.830;24.390;2023-06-01T13:23:41;94512.38;;;24.17;43.78
32243;BME280;18731;42.830;24.390;2023-06-01T13:26:07;94513.13;;;23.94;45.50
32243;BME280;18731;42.830;24.390;2023-06-01T13:28:33;94522.59;;;23.86;44.42
32243;BME280;18731;42.830;24.390;2023-06-01T13:30:59;94513.03;;;23.44;43.80
32243;BME280;18731;42.830;24.390;2023-06-01T13:33:25;94517.97;;;23.22;44.99
32243;BME280;18731;42.830;24.390;2023-06-01T13:35:50;94497.19;;;23.01;47.88
32243;BME280;18731;42.830;24.390;2023-06-01T13:38:16;94509.75;;;22.91;50.37
32243;BME280;18731;42.830;24.390;2023-06-01T13:40:42;94529.41;;;22.68;52.28
32243;BME280;18731;42.830;24.390;2023-06-01T13:43:08;94531.16;;;22.48;53.98
32243;BME280;18731;42.830;24.390;2023-06-01T13:45:34;94532.44;;;22.36;54.40
32243;BME280;18731;42.830;24.390;2023-06-01T13:48:00;94532.97;;;22.17;55.40
32243;BME280;18731;42.830;24.390;2023-06-01T13:50:25;94520.47;;;21.71;56.73
32243;BME280;18731;42.830;24.390;2023-06-01T13:52:52;94533.38;;;21.53;57.80
32243;BME280;18731;42.830;24.390;2023-06-01T13:55:19;94529.59;;;21.33;58.37
32243;BME280;18731;42.830;24.390;2023-06-01T13:57:45;94532.72;;;21.28;58.80
32243;BME280;18731;42.830;24.390;2023-06-01T14:00:11;94529.66;;;21.11;60.23
32243;BME280;18731;42.830;24.390;2023-06-01T14:02:38;94527.38;;;20.99;59.90
32243;BME280;18731;42.830;24.390;2023-06-01T14:05:04;94516.56;;;20.92;60.19
32243;BME280;18731;42.830;24.390;2023-06-01T14:07:30;94524.69;;;20.78;61.86
32243;BME280;18731;42.830;24.390;2023-06-01T14:09:55;94521.63;;;20.72;62.23
32243;BME280;18731;42.830;24.390;2023-06-01T14:12:22;94514.69;;;20.53;62.63
32243;BME280;18731;42.830;24.390;2023-06-01T14:14:48;94511.22;;;20.49;63.76
32243;BME280;18731;42.830;24.390;2023-06-01T14:17:14;94522.81;;;20.53;64.44
32243;BME280;18731;42.830;24.390;2023-06-01T14:19:39;94520.50;;;20.38;64.84
32243;BME280;18731;42.830;24.390;2023-06-01T14:22:05;94516.63;;;20.28;64.94
32243;BME280;18731;42.830;24.390;2023-06-01T14:24:31;94525.16;;;20.30;65.58
32243;BME280;18731;42.830;24.390;2023-06-01T14:26:57;94508.13;;;20.15;65.40
32243;BME280;18731;42.830;24.390;2023-06-01T14:29:22;94522.81;;;20.21;65.03
32243;BME280;18731;42.830;24.390;2023-06-01T14:31:48;94516.63;;;20.24;65.80
32243;BME280;18731;42.830;24.390;2023-06-01T14:34:14;94523.59;;;20.22;65.57
32243;BME280;18731;42.830;24.390;2023-06-01T14:36:40;94510.44;;;20.17;66.08
32243;BME280;18731;42.830;24.390;2023-06-01T14:39:06;94505.03;;;20.20;65.57
32243;BME280;18731;42.830;24.390;2023-06-01T14:41:32;94515.09;;;20.13;66.30
32243;BME280;18731;42.830;24.390;2023-06-01T14:43:58;94515.09;;;20.09;66.07
32243;BME280;18731;42.830;24.390;2023-06-01T14:46:24;94515.47;;;20.01;66.21
32243;BME280;18731;42.830;24.390;2023-06-01T14:48:49;94514.72;;;20.00;66.74
32243;BME280;18731;42.830;24.390;2023-06-01T14:51:15;94515.09;;;20.06;66.89
32243;BME280;18731;42.830;24.390;2023-06-01T14:53:41;94507.34;;;20.08;67.07
32243;BME280;18731;42.830;24.390;2023-06-01T14:56:10;94514.72;;;20.04;67.53
32243;BME280;18731;42.830;24.390;2023-06-01T14:58:36;94516.63;;;20.03;67.88
32243;BME280;18731;42.830;24.390;2023-06-01T15:01:01;94508.13;;;19.90;68.89
32243;BME280;18731;42.830;24.390;2023-06-01T15:03:27;94512.75;;;19.86;69.27
32243;BME280;18731;42.830;24.390;2023-06-01T15:05:53;94491.09;;;19.72;70.72
32243;BME280;18731;42.830;24.390;2023-06-01T15:08:19;94504.25;;;19.77;71.23
32243;BME280;18731;42.830;24.390;2023-06-01T15:10:46;94498.81;;;19.67;70.85
32243;BME280;18731;42.830;24.390;2023-06-01T15:13:12;94502.69;;;19.62;71.57
32243;BME280;18731;42.830;24.390;2023-06-01T15:15:40;94496.09;;;19.56;71.77
32243;BME280;18731;42.830;24.390;2023-06-01T15:18:07;94501.47;;;19.49;72.31
32243;BME280;18731;42.830;24.390;2023-06-01T15:20:32;94503.38;;;19.41;72.74
32243;BME280;18731;42.830;24.390;2023-06-01T15:22:59;94499.50;;;19.35;73.66
32243;BME280;18731;42.830;24.390;2023-06-01T15:25:24;94496.38;;;19.26;74.25
32243;BME280;18731;42.830;24.390;2023-06-01T15:27:50;94499.84;;;19.19;74.21
32243;BME280;18731;42.830;24.390;2023-06-01T15:30:16;94502.53;;;19.12;74.92
32243;BME280;18731;42.830;24.390;2023-06-01T15:32:42;94486.28;;;19.05;75.18
32243;BME280;18731;42.830;24.390;2023-06-01T15:35:08;94489.38;;;19.07;75.73
32243;BME280;18731;42.830;24.390;2023-06-01T15:37:34;94491.72;;;19.12;75.89
32243;BME280;18731;42.830;24.390;2023-06-01T15:40:01;94494.81;;;19.21;75.98
32243;BME280;18731;42.830;24.390;2023-06-01T15:42:27;94499.50;;;19.32;75.40
32243;BME280;18731;42.830;24.390;2023-06-01T15:44:53;94494.88;;;19.43;75.70
32243;BME280;18731;42.830;24.390;2023-06-01T15:47:18;94505.00;;;19.56;74.91
32243;BME280;18731;42.830;24.390;2023-06-01T15:49:44;94502.28;;;19.60;74.39
32243;BME280;18731;42.830;24.390;2023-06-01T15:52:10;94510.03;;;19.65;74.40
32243;BME280;18731;42.830;24.390;2023-06-01T15:54:36;94511.59;;;19.73;74.90
32243;BME280;18731;42.830;24.390;2023-06-01T15:57:02;94512.75;;;19.79;76.16
32243;BME280;18731;42.830;24.390;2023-06-01T15:59:29;94507.34;;;19.79;75.85
32243;BME280;18731;42.830;24.390;2023-06-01T16:01:55;94505.41;;;19.80;75.27
32243;BME280;18731;42.830;24.390;2023-06-01T16:04:21;94492.63;;;19.77;74.24
32243;BME280;18731;42.830;24.390;2023-06-01T16:06:47;94503.09;;;19.75;73.56
32243;BME280;18731;42.830;24.390;2023-06-01T16:09:13;94515.06;;;19.77;72.77
32243;BME280;18731;42.830;24.390;2023-06-01T16:11:39;94512.34;;;19.59;72.91
32243;BME280;18731;42.830;24.390;2023-06-01T16:14:05;94514.63;;;19.47;74.00
32243;BME280;18731;42.830;24.390;2023-06-01T16:16:32;94516.94;;;19.45;73.71
32243;BME280;18731;42.830;24.390;2023-06-01T16:18:58;94511.94;;;19.54;73.81
32243;BME280;18731;42.830;24.390;2023-06-01T16:21:23;94499.56;;;19.53;74.05
32243;BME280;18731;42.830;24.390;2023-06-01T16:23:49;94468.59;;;19.40;73.69
32243;BME280;18731;42.830;24.390;2023-06-01T16:26:15;94502.63;;;19.44;74.84
32243;BME280;18731;42.830;24.390;2023-06-01T16:28:41;94519.59;;;19.34;73.82
32243;BME280;18731;42.830;24.390;2023-06-01T16:31:06;94521.53;;;19.34;73.18
32243;BME280;18731;42.830;24.390;2023-06-01T16:33:32;94515.34;;;19.30;73.54
32243;BME280;18731;42.830;24.390;2023-06-01T16:35:58;94511.84;;;19.29;73.74
32243;BME280;18731;42.830;24.390;2023-06-01T16:38:23;94518.03;;;19.30;73.56
32243;BME280;18731;42.830;24.390;2023-06-01T16:40:49;94508.75;;;19.23;74.54
32243;BME280;18731;42.830;24.390;2023-06-01T16:43:15;94525.78;;;19.35;74.48
32243;BME280;18731;42.830;24.390;2023-06-01T16:45:46;94523.44;;;19.19;74.38
32243;BME280;18731;42.830;24.390;2023-06-01T16:48:12;94529.56;;;19.05;74.95
32243;BME280;18731;42.830;24.390;2023-06-01T16:50:37;94519.91;;;19.04;74.85
32243;BME280;18731;42.830;24.390;2023-06-01T16:53:11;94519.13;;;19.07;75.53
32243;BME280;18731;42.830;24.390;2023-06-01T16:55:37;94521.81;;;19.00;76.03
32243;BME280;18731;42.830;24.390;2023-06-01T16:58:02;94519.41;;;18.84;75.97
32243;BME280;18731;42.830;24.390;2023-06-01T17:00:28;94525.59;;;18.85;76.24
32243;BME280;18731;42.830;24.390;2023-06-01T17:02:54;94526.34;;;18.78;75.98
32243;BME280;18731;42.830;24.390;2023-06-01T17:05:20;94510.81;;;18.65;76.33
32243;BME280;18731;42.830;24.390;2023-06-01T17:07:45;94517.28;;;18.53;77.12
32243;BME280;18731;42.830;24.390;2023-06-01T17:10:11;94509.84;;;18.36;77.93
32243;BME280;18731;42.830;24.390;2023-06-01T17:12:37;94512.97;;;18.41;77.93
32243;BME280;18731;42.830;24.390;2023-06-01T17:15:04;94506.81;;;18.44;77.91
32243;BME280;18731;42.830;24.390;2023-06-01T17:17:30;94500.63;;;18.40;78.03
32243;BME280;18731;42.830;24.390;2023-06-01T17:19:58;94487.38;;;18.21;78.23
32243;BME280;18731;42.830;24.390;2023-06-01T17:22:24;94493.59;;;18.28;79.36
32243;BME280;18731;42.830;24.390;2023-06-01T17:24:50;94499.41;;;18.30;79.22
32243;BME280;18731;42.830;24.390;2023-06-01T17:27:15;94495.16;;;18.29;78.79
32243;BME280;18731;42.830;24.390;2023-06-01T17:29:41;94494.72;;;18.24;79.08
32243;BME280;18731;42.830;24.390;2023-06-01T17:32:07;94494.31;;;18.22;79.42
32243;BME280;18731;42.830;24.390;2023-06-01T17:34:32;94477.63;;;18.13;79.09
32243;BME280;18731;42.830;24.390;2023-06-01T17:36:58;94488.09;;;18.18;79.67
32243;BME280;18731;42.830;24.390;2023-06-01T17:39:24;94490.66;;;18.00;80.50
32243;BME280;18731;42.830;24.390;2023-06-01T17:41:51;94489.81;;;17.89;80.85
32243;BME280;18731;42.830;24.390;2023-06-01T17:44:17;94487.41;;;17.77;81.18
32243;BME280;18731;42.830;24.390;2023-06-01T17:46:44;94486.22;;;17.74;80.88
32243;BME280;18731;42.830;24.390;2023-06-01T17:49:10;94485.00;;;17.68;80.73
32243;BME280;18731;42.830;24.390;2023-06-01T17:51:36;94491.44;;;17.56;81.01
32243;BME280;18731;42.830;24.390;2023-06-01T17:54:04;94491.38;;;17.49;81.35
32243;BME280;18731;42.830;24.390;2023-06-01T17:56:30;94478.19;;;17.41;81.11
32243;BME280;18731;42.830;24.390;2023-06-01T17:58:56;94490.91;;;17.44;81.34
32243;BME280;18731;42.830;24.390;2023-06-01T18:01:21;94494.47;;;17.51;81.54
32243;BME280;18731;42.830;24.390;2023-06-01T18:03:47;94492.50;;;17.48;81.87
32243;BME280;18731;42.830;24.390;2023-06-01T18:06:13;94495.91;;;17.42;81.95
32243;BME280;18731;42.830;24.390;2023-06-01T18:08:43;94500.56;;;17.45;81.83
32243;BME280;18731;42.830;24.390;2023-06-01T18:11:08;94510.88;;;17.35;82.19
32243;BME280;18731;42.830;24.390;2023-06-01T18:13:34;94494.19;;;17.23;82.36
32243;BME280;18731;42.830;24.390;2023-06-01T18:16:00;94507.72;;;17.26;82.13
32243;BME280;18731;42.830;24.390;2023-06-01T18:18:26;94501.06;;;17.17;81.86
32243;BME280;18731;42.830;24.390;2023-06-01T18:20:51;94511.41;;;17.11;81.91
32243;BME280;18731;42.830;24.390;2023-06-01T18:23:17;94519.19;;;17.20;82.00
32243;BME280;18731;42.830;24.390;2023-06-01T18:25:42;94513.19;;;17.00;83.58
32243;BME280;18731;42.830;24.390;2023-06-01T18:28:08;94503.06;;;16.90;83.98
32243;BME280;18731;42.830;24.390;2023-06-01T18:30:34;94508.53;;;16.97;84.10
32243;BME280;18731;42.830;24.390;2023-06-01T18:33:00;94507.72;;;16.93;84.23
32243;BME280;18731;42.830;24.390;2023-06-01T18:35:26;94511.97;;;16.94;83.81